sensor_id;sensor_type;location;lat;lon;timestamp;pressure;altitude;pressure_sealevel;temperature;humidity
40592;BME280;26301;42.832;23.918;2023-01-30T00:01:03;93313.44;;;-0.81;92.86
40592;BME280;26301;42.832;23.918;2023-01-30T00:03:29;93314.38;;;-0.82;92.42
40592;BME280;26301;42.832;23.918;2023-01-30T00:05:55;93295.56;;;-0.96;92.82
40592;BME280;26301;42.832;23.918;2023-01-30T00:08:21;93312.00;;;-0.83;92.57
40592;BME280;26301;42.832;23.918;2023-01-30T00:10:46;93301.41;;;-0.87;92.38
40592;BME280;26301;42.832;23.918;2023-01-30T00:13:13;93313.13;;;-0.78;92.43
40592;BME280;26301;42.832;23.918;2023-01-30T00:15:39;93317.22;;;-0.77;92.01
40592;BME280;26301;42.832;23.918;2023-01-30T00:18:05;93304.09;;;-0.88;91.77
40592;BME280;26301;42.832;23.918;2023-01-30T00:20:31;93294.91;;;-0.98;92.24
40592;BME280;26301;42.832;23.918;2023-01-30T00:22:57;93298.22;;;-0.97;92.35
40592;BME280;26301;42.832;23.918;2023-01-30T00:25:24;93318.38;;;-1.04;92.67
40592;BME280;26301;42.832;23.918;2023-01-30T00:27:49;93311.69;;;-0.97;92.43
40592;BME280;26301;42.832;23.918;2023-01-30T00:30:15;93312.84;;;-0.99;92.12
40592;BME280;26301;42.832;23.918;2023-01-30T00:32:41;93316.16;;;-0.99;92.47
40592;BME280;26301;42.832;23.918;2023-01-30T00:35:06;93314.41;;;-1.06;93.40
40592;BME280;26301;42.832;23.918;2023-01-30T00:37:32;93307.13;;;-1.09;93.26
40592;BME280;26301;42.832;23.918;2023-01-30T00:39:57;93293.50;;;-1.25;93.59
40592;BME280;26301;42.832;23.918;2023-01-30T00:42:23;93304.59;;;-1.34;94.45
40592;BME280;26301;42.832;23.918;2023-01-30T00:45:11;93297.47;;;-1.47;94.81
40592;BME280;26301;42.832;23.918;2023-01-30T00:47:56;93317.91;;;-1.40;95.13
40592;BME280;26301;42.832;23.918;2023-01-30T00:50:22;93319.81;;;-1.42;95.31
40592;BME280;26301;42.832;23.918;2023-01-30T00:52:47;93315.06;;;-1.53;95.51
40592;BME280;26301;42.832;23.918;2023-01-30T00:55:13;93313.94;;;-1.43;95.78
40592;BME280;26301;42.832;23.918;2023-01-30T00:57:40;93300.47;;;-1.51;95.43
40592;BME280;26301;42.832;23.918;2023-01-30T01:00:06;93307.94;;;-1.33;94.32
40592;BME280;26301;42.832;23.918;2023-01-30T01:02:33;93310.63;;;-1.35;94.83
40592;BME280;26301;42.832;23.918;2023-01-30T01:04:59;93303.19;;;-1.36;95.11
40592;BME280;26301;42.832;23.918;2023-01-30T01:07:25;93310.00;;;-1.29;94.76
40592;BME280;26301;42.832;23.918;2023-01-30T01:09:51;93305.41;;;-1.17;93.84
40592;BME280;26301;42.832;23.918;2023-01-30T01:12:16;93297.47;;;-1.22;93.92
40592;BME280;26301;42.832;23.918;2023-01-30T01:14:42;93222.75;;;-1.92;94.74
40592;BME280;26301;42.832;23.918;2023-01-30T01:17:08;93297.78;;;-1.42;95.24
40592;BME280;26301;42.832;23.918;2023-01-30T01:19:34;93304.28;;;-1.31;94.81
40592;BME280;26301;42.832;23.918;2023-01-30T01:21:59;93301.28;;;-1.43;95.67
40592;BME280;26301;42.832;23.918;2023-01-30T01:24:25;93279.13;;;-1.65;96.41
40592;BME280;26301;42.832;23.918;2023-01-30T01:26:52;93297.03;;;-1.50;96.71
40592;BME280;26301;42.832;23.918;2023-01-30T01:29:18;93210.72;;;-1.98;95.73
40592;BME280;26301;42.832;23.918;2023-01-30T01:31:43;93274.53;;;-1.62;95.59
40592;BME280;26301;42.832;23.918;2023-01-30T01:34:10;93291.63;;;-1.47;96.12
40592;BME280;26301;42.832;23.918;2023-01-30T01:36:37;93291.00;;;-1.41;95.59
40592;BME280;26301;42.832;23.918;2023-01-30T01:39:03;93281.47;;;-1.39;95.57
40592;BME280;26301;42.832;23.918;2023-01-30T01:41:29;93287.31;;;-1.39;95.83
40592;BME280;26301;42.832;23.918;2023-01-30T01:44:04;93282.44;;;-1.40;96.13
40592;BME280;26301;42.832;23.918;2023-01-30T01:46:52;93270.09;;;-1.43;96.37
40592;BME280;26301;42.832;23.918;2023-01-30T01:49:40;93286.22;;;-1.36;96.43
40592;BME280;26301;42.832;23.918;2023-01-30T01:52:14;93283.53;;;-1.34;95.85
40592;BME280;26301;42.832;23.918;2023-01-30T01:57:16;93282.59;;;-1.33;95.22
40592;BME280;26301;42.832;23.918;2023-01-30T01:59:52;93265.03;;;-1.43;95.86
40592;BME280;26301;42.832;23.918;2023-01-30T02:02:19;93279.09;;;-1.32;95.45
40592;BME280;26301;42.832;23.918;2023-01-30T02:04:48;93281.94;;;-1.27;94.27
40592;BME280;26301;42.832;23.918;2023-01-30T02:07:44;93278.16;;;-1.31;95.43
40592;BME280;26301;42.832;23.918;2023-01-30T02:10:17;93267.25;;;-1.56;96.15
40592;BME280;26301;42.832;23.918;2023-01-30T02:12:44;93266.44;;;-1.49;96.24
40592;BME280;26301;42.832;23.918;2023-01-30T02:15:10;93245.06;;;-1.63;96.24
40592;BME280;26301;42.832;23.918;2023-01-30T02:17:36;93240.00;;;-1.54;96.95
40592;BME280;26301;42.832;23.918;2023-01-30T02:31:14;93233.66;;;-1.34;95.91
40592;BME280;26301;42.832;23.918;2023-01-30T02:36:50;93250.44;;;-1.33;95.46
40592;BME280;26301;42.832;23.918;2023-01-30T02:48:03;93250.75;;;-1.36;95.43
40592;BME280;26301;42.832;23.918;2023-01-30T02:51:13;93250.91;;;-1.38;94.10
40592;BME280;26301;42.832;23.918;2023-01-30T02:53:36;93247.59;;;-1.46;94.62
40592;BME280;26301;42.832;23.918;2023-01-30T02:56:02;93244.13;;;-1.53;94.35
40592;BME280;26301;42.832;23.918;2023-01-30T02:58:30;93227.50;;;-1.72;94.67
40592;BME280;26301;42.832;23.918;2023-01-30T03:04:03;93244.75;;;-1.76;94.84
40592;BME280;26301;42.832;23.918;2023-01-30T03:12:02;93248.38;;;-1.87;95.47
40592;BME280;26301;42.832;23.918;2023-01-30T03:14:58;93236.66;;;-1.88;95.17
40592;BME280;26301;42.832;23.918;2023-01-30T03:17:26;93218.16;;;-2.04;94.87
40592;BME280;26301;42.832;23.918;2023-01-30T03:19:53;93236.34;;;-1.93;94.76
40592;BME280;26301;42.832;23.918;2023-01-30T03:22:20;93231.59;;;-1.96;95.55
40592;BME280;26301;42.832;23.918;2023-01-30T03:24:47;93226.84;;;-1.99;95.93
40592;BME280;26301;42.832;23.918;2023-01-30T03:27:13;93241.41;;;-1.93;95.65
40592;BME280;26301;42.832;23.918;2023-01-30T03:29:39;93242.66;;;-1.97;95.69
40592;BME280;26301;42.832;23.918;2023-01-30T03:32:05;93242.66;;;-1.97;95.53
40592;BME280;26301;42.832;23.918;2023-01-30T03:34:31;93214.00;;;-2.14;95.46
40592;BME280;26301;42.832;23.918;2023-01-30T03:36:56;93214.50;;;-2.18;95.60
40592;BME280;26301;42.832;23.918;2023-01-30T03:39:23;93221.47;;;-2.04;94.58
40592;BME280;26301;42.832;23.918;2023-01-30T03:41:50;93232.69;;;-2.07;95.23
40592;BME280;26301;42.832;23.918;2023-01-30T03:44:15;93230.03;;;-1.97;94.86
40592;BME280;26301;42.832;23.918;2023-01-30T03:46:41;93225.59;;;-1.95;94.50
40592;BME280;26301;42.832;23.918;2023-01-30T03:49:06;93224.31;;;-1.91;94.55
40592;BME280;26301;42.832;23.918;2023-01-30T03:51:32;93212.59;;;-2.00;94.78
40592;BME280;26301;42.832;23.918;2023-01-30T03:53:58;93222.28;;;-1.95;94.57
40592;BME280;26301;42.832;23.918;2023-01-30T03:56:23;93202.66;;;-2.01;93.45
40592;BME280;26301;42.832;23.918;2023-01-30T03:58:49;93216.56;;;-1.97;93.38
40592;BME280;26301;42.832;23.918;2023-01-30T04:01:14;93211.03;;;-2.01;94.13
40592;BME280;26301;42.832;23.918;2023-01-30T04:03:41;93216.41;;;-1.96;93.94
40592;BME280;26301;42.832;23.918;2023-01-30T04:06:09;93190.13;;;-2.11;94.33
40592;BME280;26301;42.832;23.918;2023-01-30T04:08:34;93218.63;;;-1.93;94.59
40592;BME280;26301;42.832;23.918;2023-01-30T04:11:00;93197.28;;;-1.98;94.09
40592;BME280;26301;42.832;23.918;2023-01-30T04:13:26;93184.63;;;-1.98;93.21
40592;BME280;26301;42.832;23.918;2023-01-30T04:15:51;93187.94;;;-1.98;93.28
40592;BME280;26301;42.832;23.918;2023-01-30T04:18:17;93202.63;;;-1.93;93.81
40592;BME280;26301;42.832;23.918;2023-01-30T04:20:44;93211.66;;;-1.91;94.57
40592;BME280;26301;42.832;23.918;2023-01-30T04:23:09;93195.03;;;-1.93;92.85
40592;BME280;26301;42.832;23.918;2023-01-30T04:25:35;93200.25;;;-2.03;93.79
40592;BME280;26301;42.832;23.918;2023-01-30T04:28:00;93189.34;;;-2.03;93.65
40592;BME280;26301;42.832;23.918;2023-01-30T04:30:26;93184.75;;;-2.08;93.88
40592;BME280;26301;42.832;23.918;2023-01-30T04:32:52;93190.00;;;-2.10;94.02
40592;BME280;26301;42.832;23.918;2023-01-30T04:35:17;93212.59;;;-2.00;94.50
40592;BME280;26301;42.832;23.918;2023-01-30T04:37:43;93200.44;;;-2.04;95.01
40592;BME280;26301;42.832;23.918;2023-01-30T04:40:09;93185.56;;;-1.99;93.70
40592;BME280;26301;42.832;23.918;2023-01-30T04:42:35;93195.69;;;-1.91;92.95
40592;BME280;26301;42.832;23.918;2023-01-30T04:45:00;93174.13;;;-2.20;93.90
40592;BME280;26301;42.832;23.918;2023-01-30T04:47:26;93206.47;;;-1.89;92.29
40592;BME280;26301;42.832;23.918;2023-01-30T04:49:51;93206.78;;;-1.92;92.07
40592;BME280;26301;42.832;23.918;2023-01-30T04:52:17;93180.94;;;-2.20;93.40
40592;BME280;26301;42.832;23.918;2023-01-30T04:54:42;93186.78;;;-2.20;94.52
40592;BME280;26301;42.832;23.918;2023-01-30T04:57:08;93183.03;;;-2.16;93.19
40592;BME280;26301;42.832;23.918;2023-01-30T04:59:34;93207.88;;;-1.95;93.19
40592;BME280;26301;42.832;23.918;2023-01-30T05:01:59;93207.09;;;-1.95;93.30
40592;BME280;26301;42.832;23.918;2023-01-30T05:04:25;93171.13;;;-2.23;93.53
40592;BME280;26301;42.832;23.918;2023-01-30T05:06:50;93173.66;;;-2.23;94.47
40592;BME280;26301;42.832;23.918;2023-01-30T05:09:16;93196.63;;;-2.00;94.81
40592;BME280;26301;42.832;23.918;2023-01-30T05:11:41;93196.97;;;-1.95;94.10
40592;BME280;26301;42.832;23.918;2023-01-30T05:14:07;93166.56;;;-2.12;93.83
40592;BME280;26301;42.832;23.918;2023-01-30T05:16:33;93199.00;;;-1.82;92.47
40592;BME280;26301;42.832;23.918;2023-01-30T05:18:58;93196.94;;;-1.87;92.50
40592;BME280;26301;42.832;23.918;2023-01-30T05:21:25;93169.28;;;-2.13;92.88
40592;BME280;26301;42.832;23.918;2023-01-30T05:23:55;93167.66;;;-2.14;93.98
40592;BME280;26301;42.832;23.918;2023-01-30T05:26:21;93166.88;;;-2.15;94.23
40592;BME280;26301;42.832;23.918;2023-01-30T05:28:55;93186.19;;;-1.89;93.34
40592;BME280;26301;42.832;23.918;2023-01-30T05:31:21;93200.13;;;-1.77;93.43
40592;BME280;26301;42.832;23.918;2023-01-30T05:33:48;93180.97;;;-1.96;93.34
40592;BME280;26301;42.832;23.918;2023-01-30T05:36:16;93199.00;;;-1.91;93.72
40592;BME280;26301;42.832;23.918;2023-01-30T05:38:43;93207.72;;;-1.85;94.24
40592;BME280;26301;42.832;23.918;2023-01-30T05:41:10;93170.66;;;-2.11;94.96
40592;BME280;26301;42.832;23.918;2023-01-30T05:43:36;93205.81;;;-1.83;93.49
40592;BME280;26301;42.832;23.918;2023-01-30T05:46:04;93186.19;;;-1.97;93.45
40592;BME280;26301;42.832;23.918;2023-01-30T05:48:30;93189.81;;;-2.08;94.85
40592;BME280;26301;42.832;23.918;2023-01-30T05:50:57;93201.06;;;-1.86;93.58
40592;BME280;26301;42.832;23.918;2023-01-30T05:53:26;93202.03;;;-1.95;93.88
40592;BME280;26301;42.832;23.918;2023-01-30T05:58:22;93207.88;;;-2.03;94.18
40592;BME280;26301;42.832;23.918;2023-01-30T06:00:47;93176.53;;;-2.18;93.38
40592;BME280;26301;42.832;23.918;2023-01-30T06:03:13;93204.69;;;-2.05;94.22
40592;BME280;26301;42.832;23.918;2023-01-30T06:05:39;93177.50;;;-2.19;94.30
40592;BME280;26301;42.832;23.918;2023-01-30T06:08:04;93215.31;;;-2.01;94.05
40592;BME280;26301;42.832;23.918;2023-01-30T06:10:30;93208.34;;;-2.08;93.75
40592;BME280;26301;42.832;23.918;2023-01-30T06:12:55;93206.72;;;-2.17;94.48
40592;BME280;26301;42.832;23.918;2023-01-30T06:15:21;93212.75;;;-2.18;94.70
40592;BME280;26301;42.832;23.918;2023-01-30T06:17:46;93212.59;;;-2.16;94.53
40592;BME280;26301;42.832;23.918;2023-01-30T06:20:12;93202.91;;;-2.37;94.83
40592;BME280;26301;42.832;23.918;2023-01-30T06:22:37;93221.41;;;-2.37;96.45
40592;BME280;26301;42.832;23.918;2023-01-30T06:25:03;93216.03;;;-2.34;95.97
40592;BME280;26301;42.832;23.918;2023-01-30T06:27:29;93218.56;;;-2.34;96.18
40592;BME280;26301;42.832;23.918;2023-01-30T06:29:55;93212.56;;;-2.33;96.15
40592;BME280;26301;42.832;23.918;2023-01-30T06:32:20;93212.72;;;-2.34;96.67
40592;BME280;26301;42.832;23.918;2023-01-30T06:34:46;93221.44;;;-2.28;96.46
40592;BME280;26301;42.832;23.918;2023-01-30T06:37:11;93122.81;;;-2.87;97.21
40592;BME280;26301;42.832;23.918;2023-01-30T06:39:37;93207.03;;;-2.20;97.38
40592;BME280;26301;42.832;23.918;2023-01-30T06:42:03;93179.97;;;-2.36;97.34
40592;BME280;26301;42.832;23.918;2023-01-30T06:44:28;93206.75;;;-2.00;94.18
40592;BME280;26301;42.832;23.918;2023-01-30T06:46:54;93205.97;;;-2.09;95.15
40592;BME280;26301;42.832;23.918;2023-01-30T06:49:19;93215.63;;;-2.04;95.36
40592;BME280;26301;42.832;23.918;2023-01-30T06:51:45;93214.34;;;-2.00;95.65
40592;BME280;26301;42.832;23.918;2023-01-30T06:54:10;93217.22;;;-1.95;95.49
40592;BME280;26301;42.832;23.918;2023-01-30T06:56:36;93217.69;;;-1.92;95.80
40592;BME280;26301;42.832;23.918;2023-01-30T06:59:01;93229.06;;;-1.88;96.03
40592;BME280;26301;42.832;23.918;2023-01-30T07:01:27;93218.31;;;-1.81;94.67
40592;BME280;26301;42.832;23.918;2023-01-30T07:03:52;93214.47;;;-2.26;94.41
40592;BME280;26301;42.832;23.918;2023-01-30T07:06:18;93222.84;;;-2.26;94.91
40592;BME280;26301;42.832;23.918;2023-01-30T07:08:44;93209.88;;;-2.31;95.20
40592;BME280;26301;42.832;23.918;2023-01-30T07:11:10;93224.47;;;-2.09;94.36
40592;BME280;26301;42.832;23.918;2023-01-30T07:13:35;93192.63;;;-2.36;95.43
40592;BME280;26301;42.832;23.918;2023-01-30T07:16:01;93222.88;;;-2.10;95.70
40592;BME280;26301;42.832;23.918;2023-01-30T07:18:26;93227.03;;;-1.92;94.04
40592;BME280;26301;42.832;23.918;2023-01-30T07:20:52;93223.22;;;-1.96;93.73
40592;BME280;26301;42.832;23.918;2023-01-30T07:23:17;93223.06;;;-1.87;93.47
40592;BME280;26301;42.832;23.918;2023-01-30T07:25:43;93202.66;;;-2.01;93.68
40592;BME280;26301;42.832;23.918;2023-01-30T07:28:09;93196.66;;;-1.92;92.30
40592;BME280;26301;42.832;23.918;2023-01-30T07:30:34;93205.50;;;-1.96;92.46
40592;BME280;26301;42.832;23.918;2023-01-30T07:33:01;93220.69;;;-1.80;93.35
40592;BME280;26301;42.832;23.918;2023-01-30T07:35:29;93218.50;;;-1.83;93.58
40592;BME280;26301;42.832;23.918;2023-01-30T07:37:55;93194.28;;;-1.86;93.16
40592;BME280;26301;42.832;23.918;2023-01-30T07:40:21;93194.41;;;-1.79;90.21
40592;BME280;26301;42.832;23.918;2023-01-30T07:45:29;93223.41;;;-1.65;91.06
40592;BME280;26301;42.832;23.918;2023-01-30T07:47:55;93208.97;;;-1.73;90.84
40592;BME280;26301;42.832;23.918;2023-01-30T07:50:21;93211.69;;;-1.74;91.28
40592;BME280;26301;42.832;23.918;2023-01-30T07:52:47;93200.91;;;-1.85;91.50
40592;BME280;26301;42.832;23.918;2023-01-30T07:55:12;93213.59;;;-1.68;91.58
40592;BME280;26301;42.832;23.918;2023-01-30T07:57:39;93208.03;;;-1.64;90.37
40592;BME280;26301;42.832;23.918;2023-01-30T08:00:06;93195.06;;;-1.85;91.42
40592;BME280;26301;42.832;23.918;2023-01-30T08:02:32;93198.84;;;-1.97;92.09
40592;BME280;26301;42.832;23.918;2023-01-30T08:04:57;93203.28;;;-1.99;93.42
40592;BME280;26301;42.832;23.918;2023-01-30T08:07:23;93183.31;;;-2.11;93.76
40592;BME280;26301;42.832;23.918;2023-01-30T08:09:48;93196.94;;;-1.87;93.10
40592;BME280;26301;42.832;23.918;2023-01-30T08:12:14;93177.00;;;-2.07;93.15
40592;BME280;26301;42.832;23.918;2023-01-30T08:14:39;93208.81;;;-1.79;93.37
40592;BME280;26301;42.832;23.918;2023-01-30T08:17:05;93213.72;;;-1.78;93.33
40592;BME280;26301;42.832;23.918;2023-01-30T08:19:30;93179.53;;;-1.90;93.35
40592;BME280;26301;42.832;23.918;2023-01-30T08:21:58;93153.28;;;-1.97;93.21
40592;BME280;26301;42.832;23.918;2023-01-30T08:24:23;93186.81;;;-1.71;92.19
40592;BME280;26301;42.832;23.918;2023-01-30T08:26:49;93197.75;;;-1.62;91.98
40592;BME280;26301;42.832;23.918;2023-01-30T08:29:15;93184.91;;;-1.61;90.75
40592;BME280;26301;42.832;23.918;2023-01-30T08:31:40;93179.97;;;-1.54;89.60
40592;BME280;26301;42.832;23.918;2023-01-30T08:34:06;93159.44;;;-1.67;89.57
40592;BME280;26301;42.832;23.918;2023-01-30T08:36:32;93197.72;;;-1.46;89.44
40592;BME280;26301;42.832;23.918;2023-01-30T08:38:58;93191.84;;;-1.38;88.70
40592;BME280;26301;42.832;23.918;2023-01-30T08:41:23;93167.63;;;-1.57;88.68
40592;BME280;26301;42.832;23.918;2023-01-30T08:43:51;93195.03;;;-1.44;89.40
40592;BME280;26301;42.832;23.918;2023-01-30T08:46:16;93184.56;;;-1.41;88.49
40592;BME280;26301;42.832;23.918;2023-01-30T08:48:42;93164.31;;;-1.57;87.18
40592;BME280;26301;42.832;23.918;2023-01-30T08:51:09;93178.09;;;-1.52;87.54
40592;BME280;26301;42.832;23.918;2023-01-30T08:53:34;93181.59;;;-1.53;88.56
40592;BME280;26301;42.832;23.918;2023-01-30T08:56:00;93164.50;;;-1.67;90.04
40592;BME280;26301;42.832;23.918;2023-01-30T08:58:25;93169.72;;;-1.61;90.19
40592;BME280;26301;42.832;23.918;2023-01-30T09:00:51;93156.25;;;-1.61;89.80
40592;BME280;26301;42.832;23.918;2023-01-30T09:03:17;93173.94;;;-1.45;89.30
40592;BME280;26301;42.832;23.918;2023-01-30T09:05:43;93165.44;;;-1.52;89.80
40592;BME280;26301;42.832;23.918;2023-01-30T09:08:08;93171.59;;;-1.46;90.89
40592;BME280;26301;42.832;23.918;2023-01-30T09:10:34;93158.28;;;-1.48;90.66
40592;BME280;26301;42.832;23.918;2023-01-30T09:13:00;93161.78;;;-1.49;90.96
40592;BME280;26301;42.832;23.918;2023-01-30T09:15:25;93141.38;;;-1.56;91.04
40592;BME280;26301;42.832;23.918;2023-01-30T09:17:51;93165.88;;;-1.32;88.85
40592;BME280;26301;42.832;23.918;2023-01-30T09:20:17;93157.63;;;-1.42;89.11
40592;BME280;26301;42.832;23.918;2023-01-30T09:22:45;93157.94;;;-1.37;90.18
40592;BME280;26301;42.832;23.918;2023-01-30T09:25:11;93164.75;;;-1.29;89.81
40592;BME280;26301;42.832;23.918;2023-01-30T09:27:37;93152.50;;;-1.18;88.19
40592;BME280;26301;42.832;23.918;2023-01-30T09:30:03;93145.75;;;-1.33;88.94
40592;BME280;26301;42.832;23.918;2023-01-30T09:32:29;93139.72;;;-1.32;89.18
40592;BME280;26301;42.832;23.918;2023-01-30T09:34:54;93155.22;;;-1.27;90.32
40592;BME280;26301;42.832;23.918;2023-01-30T09:37:20;93159.06;;;-1.31;90.37
40592;BME280;26301;42.832;23.918;2023-01-30T09:39:46;93132.16;;;-1.41;91.37
40592;BME280;26301;42.832;23.918;2023-01-30T09:50:52;93142.19;;;-1.08;88.66
40592;BME280;26301;42.832;23.918;2023-01-30T09:56:19;93120.94;;;-1.07;87.63
40592;BME280;26301;42.832;23.918;2023-01-30T09:58:50;93102.47;;;-1.24;88.61
40592;BME280;26301;42.832;23.918;2023-01-30T10:01:43;93095.47;;;-1.13;87.85
40592;BME280;26301;42.832;23.918;2023-01-30T10:04:35;93113.16;;;-1.05;87.83
40592;BME280;26301;42.832;23.918;2023-01-30T10:07:29;93108.16;;;-1.13;88.94
40592;BME280;26301;42.832;23.918;2023-01-30T10:13:06;93095.72;;;-1.00;88.02
40592;BME280;26301;42.832;23.918;2023-01-30T10:21:45;93070.09;;;-0.82;86.33
40592;BME280;26301;42.832;23.918;2023-01-30T10:24:31;93056.94;;;-0.78;86.32
40592;BME280;26301;42.832;23.918;2023-01-30T10:27:01;93053.94;;;-0.81;87.18
40592;BME280;26301;42.832;23.918;2023-01-30T10:29:31;93055.41;;;-0.64;84.02
40592;BME280;26301;42.832;23.918;2023-01-30T10:32:02;93034.91;;;-0.77;85.06
40592;BME280;26301;42.832;23.918;2023-01-30T10:34:46;93045.59;;;-0.67;85.40
40592;BME280;26301;42.832;23.918;2023-01-30T10:37:28;93038.19;;;-0.68;86.07
40592;BME280;26301;42.832;23.918;2023-01-30T10:45:15;93026.22;;;-0.83;87.02
40592;BME280;26301;42.832;23.918;2023-01-30T10:50:20;92986.59;;;-0.84;85.55
40592;BME280;26301;42.832;23.918;2023-01-30T10:55:47;93006.44;;;-0.64;85.25
40592;BME280;26301;42.832;23.918;2023-01-30T10:58:59;93006.88;;;-0.61;84.68
40592;BME280;26301;42.832;23.918;2023-01-30T11:01:24;92985.63;;;-0.60;85.99
40592;BME280;26301;42.832;23.918;2023-01-30T11:04:01;92984.75;;;-0.52;86.68
40592;BME280;26301;42.832;23.918;2023-01-30T11:06:28;92985.03;;;-0.47;85.15
40592;BME280;26301;42.832;23.918;2023-01-30T11:08:56;92959.38;;;-0.52;85.32
40592;BME280;26301;42.832;23.918;2023-01-30T11:11:40;92970.63;;;-0.32;84.04
40592;BME280;26301;42.832;23.918;2023-01-30T11:14:09;92930.00;;;-0.47;83.72
40592;BME280;26301;42.832;23.918;2023-01-30T11:16:52;92955.50;;;-0.25;83.46
40592;BME280;26301;42.832;23.918;2023-01-30T11:19:21;92925.91;;;-0.48;84.08
40592;BME280;26301;42.832;23.918;2023-01-30T11:21:52;92938.69;;;-0.26;84.42
40592;BME280;26301;42.832;23.918;2023-01-30T11:24:21;92929.94;;;-0.24;84.88
40592;BME280;26301;42.832;23.918;2023-01-30T11:26:48;92933.44;;;-0.25;85.24
40592;BME280;26301;42.832;23.918;2023-01-30T11:29:22;92928.00;;;-0.21;84.36
40592;BME280;26301;42.832;23.918;2023-01-30T11:31:49;92922.06;;;-0.29;84.67
40592;BME280;26301;42.832;23.918;2023-01-30T11:34:17;92924.41;;;-0.27;83.82
40592;BME280;26301;42.832;23.918;2023-01-30T11:36:43;92916.00;;;-0.42;83.95
40592;BME280;26301;42.832;23.918;2023-01-30T11:41:40;92904.81;;;-0.48;85.18
40592;BME280;26301;42.832;23.918;2023-01-30T11:44:08;92910.41;;;-0.38;84.22
40592;BME280;26301;42.832;23.918;2023-01-30T11:46:36;92912.69;;;-0.43;84.54
40592;BME280;26301;42.832;23.918;2023-01-30T11:49:21;92884.50;;;-0.63;84.48
40592;BME280;26301;42.832;23.918;2023-01-30T11:51:51;92874.78;;;-0.59;83.62
40592;BME280;26301;42.832;23.918;2023-01-30T11:54:34;92895.59;;;-0.49;84.46
40592;BME280;26301;42.832;23.918;2023-01-30T11:57:04;92889.13;;;-0.52;84.71
40592;BME280;26301;42.832;23.918;2023-01-30T11:59:34;92880.22;;;-0.48;84.61
40592;BME280;26301;42.832;23.918;2023-01-30T12:02:18;92876.22;;;-0.42;84.70
40592;BME280;26301;42.832;23.918;2023-01-30T12:04:46;92869.53;;;-0.43;85.05
40592;BME280;26301;42.832;23.918;2023-01-30T12:07:22;92855.72;;;-0.40;84.02
40592;BME280;26301;42.832;23.918;2023-01-30T12:09:47;92862.13;;;-0.30;83.90
40592;BME280;26301;42.832;23.918;2023-01-30T12:12:34;92853.53;;;-0.29;83.33
40592;BME280;26301;42.832;23.918;2023-01-30T12:20:27;92849.59;;;-0.46;83.15
40592;BME280;26301;42.832;23.918;2023-01-30T12:28:13;92817.75;;;-0.63;83.68
40592;BME280;26301;42.832;23.918;2023-01-30T12:30:52;92810.41;;;-0.58;83.42
40592;BME280;26301;42.832;23.918;2023-01-30T12:33:19;92824.75;;;-0.51;83.70
40592;BME280;26301;42.832;23.918;2023-01-30T12:38:20;92827.47;;;-0.52;83.83
40592;BME280;26301;42.832;23.918;2023-01-30T12:43:43;92816.25;;;-0.43;85.00
40592;BME280;26301;42.832;23.918;2023-01-30T12:46:29;92816.31;;;-0.36;81.83
40592;BME280;26301;42.832;23.918;2023-01-30T12:52:11;92809.16;;;-0.33;80.67
40592;BME280;26301;42.832;23.918;2023-01-30T12:54:53;92804.25;;;-0.34;81.49
40592;BME280;26301;42.832;23.918;2023-01-30T12:57:44;92803.22;;;-0.40;82.65
40592;BME280;26301;42.832;23.918;2023-01-30T13:15:02;92801.28;;;-0.23;81.04
40592;BME280;26301;42.832;23.918;2023-01-30T13:22:53;92778.19;;;-0.43;79.99
40592;BME280;26301;42.832;23.918;2023-01-30T13:25:46;92787.13;;;-0.32;81.45
40592;BME280;26301;42.832;23.918;2023-01-30T13:28:22;92788.59;;;-0.23;78.15
40592;BME280;26301;42.832;23.918;2023-01-30T13:30:51;92774.34;;;-0.39;72.06
40592;BME280;26301;42.832;23.918;2023-01-30T13:33:26;92781.00;;;-0.53;67.67
40592;BME280;26301;42.832;23.918;2023-01-30T13:35:56;92752.06;;;-0.58;70.46
40592;BME280;26301;42.832;23.918;2023-01-30T13:38:28;92767.16;;;-0.35;69.80
40592;BME280;26301;42.832;23.918;2023-01-30T13:40:57;92770.19;;;-0.25;69.77
40592;BME280;26301;42.832;23.918;2023-01-30T13:43:25;92769.47;;;-0.19;70.86
40592;BME280;26301;42.832;23.918;2023-01-30T13:45:55;92764.84;;;-0.15;71.22
40592;BME280;26301;42.832;23.918;2023-01-30T13:56:46;92749.78;;;-0.17;72.50
40592;BME280;26301;42.832;23.918;2023-01-30T14:07:30;92744.34;;;-0.14;74.30
40592;BME280;26301;42.832;23.918;2023-01-30T14:12:41;92705.56;;;-0.44;75.53
40592;BME280;26301;42.832;23.918;2023-01-30T14:18:03;92746.16;;;-0.29;75.63
40592;BME280;26301;42.832;23.918;2023-01-30T14:23:01;92715.81;;;-0.52;76.04
40592;BME280;26301;42.832;23.918;2023-01-30T14:38:39;92749.94;;;-0.70;75.35
40592;BME280;26301;42.832;23.918;2023-01-30T14:49:17;92737.72;;;-1.10;73.73
40592;BME280;26301;42.832;23.918;2023-01-30T14:51:44;92756.34;;;-1.03;73.49
40592;BME280;26301;42.832;23.918;2023-01-30T15:05:05;92739.25;;;-1.39;73.48
40592;BME280;26301;42.832;23.918;2023-01-30T15:08:10;92738.38;;;-1.46;73.53
40592;BME280;26301;42.832;23.918;2023-01-30T15:13:38;92739.47;;;-1.64;73.75
40592;BME280;26301;42.832;23.918;2023-01-30T15:18:46;92734.84;;;-1.98;76.46
40592;BME280;26301;42.832;23.918;2023-01-30T15:32:44;92705.22;;;-3.14;80.22
40592;BME280;26301;42.832;23.918;2023-01-30T15:37:38;92706.97;;;-3.23;80.20
40592;BME280;26301;42.832;23.918;2023-01-30T15:50:34;92729.13;;;-3.49;80.42
40592;BME280;26301;42.832;23.918;2023-01-30T15:53:01;92719.22;;;-3.59;80.80
40592;BME280;26301;42.832;23.918;2023-01-30T15:55:31;92707.88;;;-3.79;81.37
40592;BME280;26301;42.832;23.918;2023-01-30T15:58:09;92720.50;;;-3.87;82.02
40592;BME280;26301;42.832;23.918;2023-01-30T16:00:43;92717.19;;;-4.04;82.22
40592;BME280;26301;42.832;23.918;2023-01-30T16:03:12;92698.72;;;-4.13;81.92
40592;BME280;26301;42.832;23.918;2023-01-30T16:05:46;92695.09;;;-4.19;81.57
40592;BME280;26301;42.832;23.918;2023-01-30T16:08:19;92695.28;;;-4.12;81.00
40592;BME280;26301;42.832;23.918;2023-01-30T16:10:45;92694.00;;;-4.24;81.19
40592;BME280;26301;42.832;23.918;2023-01-30T16:13:11;92687.38;;;-4.33;80.76
40592;BME280;26301;42.832;23.918;2023-01-30T16:18:47;92674.28;;;-4.37;80.82
40592;BME280;26301;42.832;23.918;2023-01-30T16:21:20;92691.63;;;-4.34;80.58